createdAt,value
2023-03-29T00:01:41.363Z,-2.79
2023-03-29T00:04:12.930Z,-2.82
2023-03-29T00:06:41.605Z,-2.87
2023-03-29T00:09:10.736Z,-2.90
2023-03-29T00:11:39.920Z,-2.88
2023-03-29T00:14:08.726Z,-2.87
2023-03-29T00:16:38.090Z,-2.87
2023-03-29T00:19:06.938Z,-2.91
2023-03-29T00:21:35.497Z,-2.94
2023-03-29T00:24:04.884Z,-2.96
2023-03-29T00:26:33.632Z,-2.96
2023-03-29T00:29:02.488Z,-2.97
2023-03-29T00:31:31.204Z,-2.98
2023-03-29T00:34:00.085Z,-3.02
2023-03-29T00:36:32.512Z,-3.04
2023-03-29T00:39:01.157Z,-3.05
2023-03-29T00:41:29.971Z,-3.08
2023-03-29T00:44:00.929Z,-3.09
2023-03-29T00:46:31.265Z,-3.12
2023-03-29T00:49:06.440Z,-3.13
2023-03-29T00:51:39.368Z,-3.15
2023-03-29T00:54:15.496Z,-3.16
2023-03-29T00:56:47.491Z,-3.17
2023-03-29T00:59:19.387Z,-3.19
2023-03-29T01:01:53.691Z,-3.22
2023-03-29T01:04:28.707Z,-3.24
2023-03-29T01:07:03.087Z,-3.28
2023-03-29T01:09:35.265Z,-3.31
2023-03-29T01:12:08.302Z,-3.30
2023-03-29T01:14:42.728Z,-3.31
2023-03-29T01:17:12.999Z,-3.31
2023-03-29T01:19:47.631Z,-3.34
2023-03-29T01:22:25.369Z,-3.38
2023-03-29T01:25:02.306Z,-3.40
2023-03-29T01:27:52.846Z,-3.42
2023-03-29T01:30:26.842Z,-3.40
2023-03-29T01:33:00.076Z,-3.39
2023-03-29T01:35:37.877Z,-3.38
2023-03-29T01:38:13.290Z,-3.34
2023-03-29T01:40:42.260Z,-3.32
2023-03-29T01:43:23.996Z,-3.29
2023-03-29T01:45:59.940Z,-3.28
2023-03-29T01:48:32.917Z,-3.34
2023-03-29T01:51:06.914Z,-3.40
2023-03-29T01:53:40.455Z,-3.41
2023-03-29T01:56:12.839Z,-3.45
2023-03-29T01:58:46.202Z,-3.47
2023-03-29T02:01:21.215Z,-3.45
2023-03-29T02:03:54.163Z,-3.42
2023-03-29T02:06:26.452Z,-3.42
2023-03-29T02:08:55.578Z,-3.42
2023-03-29T02:11:26.683Z,-3.43
2023-03-29T02:13:56.387Z,-3.47
2023-03-29T02:16:25.159Z,-3.50
2023-03-29T02:18:57.037Z,-3.50
2023-03-29T02:21:26.488Z,-3.48
2023-03-29T02:23:58.280Z,-3.47
2023-03-29T02:26:28.353Z,-3.50
2023-03-29T02:28:57.294Z,-3.54
2023-03-29T02:31:32.760Z,-3.57
2023-03-29T02:34:07.175Z,-3.58
2023-03-29T02:36:40.907Z,-3.57
2023-03-29T02:39:13.332Z,-3.54
2023-03-29T02:41:46.431Z,-3.53
2023-03-29T02:44:19.310Z,-3.54
2023-03-29T02:46:50.647Z,-3.54
2023-03-29T02:49:19.882Z,-3.55
2023-03-29T02:51:52.098Z,-3.54
2023-03-29T02:54:25.324Z,-3.52
2023-03-29T02:56:59.027Z,-3.51
2023-03-29T02:59:29.850Z,-3.48
2023-03-29T03:01:58.809Z,-3.47
2023-03-29T03:04:28.964Z,-3.47
2023-03-29T03:06:58.025Z,-3.47
2023-03-29T03:09:27.637Z,-3.46
2023-03-29T03:11:56.592Z,-3.47
2023-03-29T03:14:27.559Z,-3.48
2023-03-29T03:16:57.617Z,-3.49
2023-03-29T03:19:26.634Z,-3.51
2023-03-29T03:21:56.274Z,-3.52
2023-03-29T03:24:24.973Z,-3.54
2023-03-29T03:26:53.911Z,-3.55
2023-03-29T03:29:24.086Z,-3.56
2023-03-29T03:32:28.133Z,-3.57
2023-03-29T03:35:15.674Z,-3.59
2023-03-29T03:37:44.672Z,-3.60
2023-03-29T03:40:13.918Z,-3.62
2023-03-29T03:42:42.714Z,-3.62
2023-03-29T03:45:12.066Z,-3.63
2023-03-29T03:47:40.817Z,-3.64
2023-03-29T03:50:24.104Z,-3.66
2023-03-29T03:52:52.744Z,-3.67
2023-03-29T03:55:22.220Z,-3.68
2023-03-29T03:58:04.444Z,-3.70
2023-03-29T04:00:33.346Z,-3.72
2023-03-29T04:03:11.544Z,-3.73
2023-03-29T04:05:42.835Z,-3.73
2023-03-29T04:08:12.394Z,-3.74
2023-03-29T04:10:59.949Z,-3.75
2023-03-29T04:13:35.706Z,-3.77
2023-03-29T04:16:26.731Z,-3.79
2023-03-29T04:18:55.900Z,-3.79
2023-03-29T04:21:24.948Z,-3.78
2023-03-29T04:23:54.472Z,-3.75
2023-03-29T04:26:23.297Z,-3.74
2023-03-29T04:29:00.902Z,-3.74
2023-03-29T04:31:36.918Z,-3.75
2023-03-29T04:34:34.734Z,-3.80
2023-03-29T04:37:09.655Z,-3.82
2023-03-29T04:39:38.674Z,-3.80
2023-03-29T04:42:08.250Z,-3.77
2023-03-29T04:44:37.238Z,-3.73
2023-03-29T04:47:07.442Z,-3.64
2023-03-29T04:49:52.944Z,-3.51
2023-03-29T04:52:32.439Z,-3.28
2023-03-29T04:55:01.266Z,-2.96
2023-03-29T04:57:44.088Z,-2.61
2023-03-29T05:00:34.384Z,-2.19
2023-03-29T05:03:21.550Z,-1.71
2023-03-29T05:06:06.253Z,-1.22
2023-03-29T05:08:37.813Z,-0.76
2023-03-29T05:11:13.003Z,-0.25
2023-03-29T05:13:41.917Z,0.23
2023-03-29T05:16:11.451Z,0.67
2023-03-29T05:18:40.536Z,1.12
2023-03-29T05:21:09.275Z,1.53
2023-03-29T05:23:39.509Z,1.93
2023-03-29T05:26:17.161Z,2.37
2023-03-29T05:28:50.231Z,2.83
2023-03-29T05:31:19.658Z,3.27
2023-03-29T05:33:52.094Z,3.72
2023-03-29T05:36:21.689Z,4.12
2023-03-29T05:38:51.540Z,4.48
2023-03-29T05:41:22.194Z,4.83
2023-03-29T05:43:52.841Z,5.19
2023-03-29T05:46:23.801Z,5.56
2023-03-29T05:48:54.759Z,5.90
2023-03-29T05:51:24.492Z,6.16
2023-03-29T05:53:55.710Z,6.37
2023-03-29T05:56:24.398Z,6.51
2023-03-29T05:58:56.313Z,6.74
2023-03-29T06:01:25.355Z,7.05
2023-03-29T06:03:58.331Z,7.36
2023-03-29T06:06:32.472Z,7.65
2023-03-29T06:09:01.726Z,7.86
2023-03-29T06:11:37.251Z,8.04
2023-03-29T06:14:24.224Z,8.22
2023-03-29T06:17:00.000Z,8.33
2023-03-29T06:19:28.666Z,8.39
2023-03-29T06:21:57.241Z,8.44
2023-03-29T06:24:27.504Z,8.43
2023-03-29T06:27:04.203Z,8.47
2023-03-29T06:29:32.930Z,8.62
2023-03-29T06:32:02.676Z,8.85
2023-03-29T06:34:51.734Z,9.09
2023-03-29T06:37:31.339Z,9.13
2023-03-29T06:40:20.956Z,9.05
2023-03-29T06:42:50.398Z,9.14
2023-03-29T06:45:27.420Z,9.25
2023-03-29T06:47:58.413Z,9.15
2023-03-29T06:50:27.381Z,9.01
2023-03-29T06:53:05.648Z,8.94
2023-03-29T06:55:36.048Z,9.12
2023-03-29T06:58:20.310Z,9.54
2023-03-29T07:00:49.123Z,10.07
2023-03-29T07:03:30.067Z,10.57
2023-03-29T07:06:03.718Z,10.63
2023-03-29T07:08:34.517Z,10.63
2023-03-29T07:11:06.572Z,10.89
2023-03-29T07:13:55.573Z,11.07
2023-03-29T07:16:25.386Z,11.22
2023-03-29T07:18:54.023Z,11.30
2023-03-29T07:21:54.965Z,11.52
2023-03-29T07:24:27.504Z,11.76
2023-03-29T07:27:04.052Z,11.91
2023-03-29T07:29:33.554Z,12.02
2023-03-29T07:32:02.248Z,12.23
2023-03-29T07:35:00.117Z,12.59
2023-03-29T07:37:36.829Z,12.93
2023-03-29T07:40:11.818Z,13.18
2023-03-29T07:43:02.379Z,13.36
2023-03-29T07:45:33.056Z,13.56
2023-03-29T07:48:12.918Z,13.62
2023-03-29T07:50:53.192Z,13.23
2023-03-29T07:53:26.506Z,12.93
2023-03-29T07:55:55.814Z,12.74
2023-03-29T07:59:02.942Z,12.86
2023-03-29T08:01:31.803Z,12.79
2023-03-29T08:04:19.280Z,12.66
2023-03-29T08:07:07.017Z,12.14
2023-03-29T08:09:58.613Z,11.65
2023-03-29T08:12:51.864Z,11.59
2023-03-29T08:15:22.193Z,11.66
2023-03-29T08:17:50.949Z,11.70
2023-03-29T08:20:20.108Z,11.64
2023-03-29T08:22:50.208Z,11.53
2023-03-29T08:25:31.380Z,11.61
2023-03-29T08:28:00.386Z,11.59
2023-03-29T08:30:35.622Z,11.73
2023-03-29T08:33:04.552Z,11.73
2023-03-29T08:35:33.191Z,11.58
2023-03-29T08:38:12.075Z,11.50
2023-03-29T08:40:41.211Z,11.39
2023-03-29T08:43:46.345Z,11.13
2023-03-29T08:46:42.700Z,10.91
2023-03-29T08:49:41.000Z,10.94
2023-03-29T08:52:18.143Z,10.91
2023-03-29T08:54:48.743Z,10.92
2023-03-29T08:57:32.277Z,10.93
2023-03-29T09:00:21.076Z,10.78
2023-03-29T09:02:53.844Z,10.71
2023-03-29T09:05:27.491Z,10.85
2023-03-29T09:08:13.325Z,10.95
2023-03-29T09:10:46.964Z,11.32
2023-03-29T09:13:32.821Z,11.56
2023-03-29T09:16:08.035Z,11.72
2023-03-29T09:18:51.950Z,11.92
2023-03-29T09:21:31.435Z,11.98
2023-03-29T09:24:14.941Z,12.17
2023-03-29T09:27:18.445Z,12.10
2023-03-29T09:30:01.935Z,12.00
2023-03-29T09:32:47.019Z,11.98
2023-03-29T09:35:23.757Z,11.84
2023-03-29T09:37:54.521Z,11.91
2023-03-29T09:40:27.705Z,12.04
2023-03-29T09:43:14.200Z,12.08
2023-03-29T09:45:44.121Z,11.83
2023-03-29T09:48:14.551Z,11.73
2023-03-29T09:50:48.166Z,11.77
2023-03-29T09:53:18.004Z,11.86
2023-03-29T09:55:52.241Z,12.00
2023-03-29T09:58:37.553Z,12.01
2023-03-29T10:01:09.691Z,12.13
2023-03-29T10:03:40.599Z,12.27
2023-03-29T10:06:14.052Z,12.42
2023-03-29T10:08:49.963Z,12.58
2023-03-29T10:11:22.501Z,12.80
2023-03-29T10:13:56.302Z,12.77
2023-03-29T10:16:29.922Z,12.86
2023-03-29T10:18:58.526Z,12.92
2023-03-29T10:21:31.437Z,12.93
2023-03-29T10:24:00.477Z,12.77
2023-03-29T10:26:33.251Z,12.45
2023-03-29T10:29:05.593Z,12.18
2023-03-29T10:31:38.090Z,12.01
2023-03-29T10:34:08.378Z,11.82
2023-03-29T10:36:41.625Z,11.66
2023-03-29T10:39:15.155Z,11.55
2023-03-29T10:41:44.702Z,11.47
2023-03-29T10:44:33.285Z,11.48
2023-03-29T10:47:16.131Z,11.48
2023-03-29T10:49:47.665Z,11.41
2023-03-29T10:52:16.770Z,11.36
2023-03-29T10:54:47.100Z,11.47
2023-03-29T10:57:27.074Z,11.51
2023-03-29T11:00:02.164Z,11.60
2023-03-29T11:02:59.077Z,11.74
2023-03-29T11:05:32.137Z,11.66
2023-03-29T11:08:27.242Z,11.60
2023-03-29T11:11:06.141Z,11.44
2023-03-29T11:13:41.150Z,11.26
2023-03-29T11:16:21.570Z,11.29
2023-03-29T11:19:06.151Z,11.41
2023-03-29T11:21:40.975Z,11.57
2023-03-29T11:24:27.176Z,11.65
2023-03-29T11:27:12.317Z,11.60
2023-03-29T11:29:52.121Z,11.69
2023-03-29T11:32:28.988Z,11.69
2023-03-29T11:35:08.744Z,11.68
2023-03-29T11:37:45.167Z,11.74
2023-03-29T11:40:35.364Z,11.64
2023-03-29T11:43:09.624Z,11.46
2023-03-29T11:45:43.057Z,11.52
2023-03-29T11:48:18.728Z,11.60
2023-03-29T11:50:52.943Z,11.65
2023-03-29T11:53:26.437Z,11.62
2023-03-29T11:55:58.867Z,11.46
2023-03-29T11:58:31.805Z,11.32
2023-03-29T12:01:05.369Z,11.29
2023-03-29T12:03:40.604Z,11.33
2023-03-29T12:06:16.706Z,11.33
2023-03-29T12:08:50.652Z,11.31
2023-03-29T12:11:28.662Z,11.34
2023-03-29T12:14:03.375Z,11.44
2023-03-29T12:16:37.639Z,11.54
2023-03-29T12:19:16.618Z,11.53
2023-03-29T12:21:46.843Z,11.44
2023-03-29T12:24:18.610Z,11.31
2023-03-29T12:27:03.018Z,11.30
2023-03-29T12:29:44.870Z,11.36
2023-03-29T12:32:29.922Z,11.39
2023-03-29T12:35:23.163Z,11.46
2023-03-29T12:38:19.306Z,11.47
2023-03-29T12:41:16.064Z,11.43
2023-03-29T12:43:53.915Z,11.46
2023-03-29T12:46:42.034Z,11.43
2023-03-29T12:49:14.717Z,11.38
2023-03-29T12:51:43.847Z,11.40
2023-03-29T12:54:16.400Z,11.47
2023-03-29T12:56:57.818Z,11.49
2023-03-29T12:59:36.254Z,11.49
2023-03-29T13:02:42.135Z,11.55
2023-03-29T13:05:29.118Z,11.64
2023-03-29T13:07:57.845Z,11.69
2023-03-29T13:10:39.334Z,11.74
2023-03-29T13:13:20.961Z,11.66
2023-03-29T13:15:50.178Z,11.51
2023-03-29T13:18:31.558Z,11.35
2023-03-29T13:21:12.236Z,11.25
2023-03-29T13:23:51.070Z,11.22
2023-03-29T13:26:34.955Z,11.15
2023-03-29T13:29:22.766Z,11.07
2023-03-29T13:32:01.161Z,11.01
2023-03-29T13:34:41.396Z,10.96
2023-03-29T13:37:22.744Z,10.87
2023-03-29T13:39:53.655Z,10.87
2023-03-29T13:42:25.644Z,10.82
2023-03-29T13:45:12.560Z,10.72
2023-03-29T13:47:58.312Z,10.69
2023-03-29T13:50:38.961Z,10.66
2023-03-29T13:53:23.388Z,10.67
2023-03-29T13:55:54.260Z,10.71
2023-03-29T13:58:33.033Z,10.62
2023-03-29T14:01:15.879Z,10.56
2023-03-29T14:03:48.934Z,10.54
2023-03-29T14:06:25.079Z,10.50
2023-03-29T14:08:55.600Z,10.54
2023-03-29T14:11:27.017Z,10.60
2023-03-29T14:13:59.658Z,10.64
2023-03-29T14:16:31.350Z,10.68
2023-03-29T14:19:11.672Z,10.72
2023-03-29T14:21:41.782Z,10.76
2023-03-29T14:24:16.724Z,10.82
2023-03-29T14:26:47.814Z,10.90
2023-03-29T14:29:18.718Z,10.93
2023-03-29T14:31:49.565Z,10.97
2023-03-29T14:34:22.962Z,10.98
2023-03-29T14:36:53.271Z,10.97
2023-03-29T14:39:23.365Z,10.96
2023-03-29T14:42:08.608Z,10.87
2023-03-29T14:44:37.676Z,10.81
2023-03-29T14:47:08.356Z,10.84
2023-03-29T14:49:47.786Z,10.89
2023-03-29T14:52:21.680Z,10.88
2023-03-29T14:54:59.264Z,10.87
2023-03-29T14:57:34.055Z,10.89
2023-03-29T15:00:12.750Z,10.92
2023-03-29T15:02:50.081Z,10.98
2023-03-29T15:05:30.341Z,11.02
2023-03-29T15:07:59.940Z,11.02
2023-03-29T15:10:31.431Z,10.98
2023-03-29T15:13:02.914Z,10.88
2023-03-29T15:15:35.618Z,10.77
2023-03-29T15:18:06.254Z,10.70
2023-03-29T15:20:37.414Z,10.70
2023-03-29T15:23:20.751Z,10.68
2023-03-29T15:25:53.534Z,10.68
2023-03-29T15:28:28.182Z,10.66
2023-03-29T15:33:36.763Z,10.57
2023-03-29T15:36:08.623Z,10.48
2023-03-29T15:38:44.130Z,10.42
2023-03-29T15:41:14.876Z,10.33
2023-03-29T15:43:44.840Z,10.26
2023-03-29T15:46:13.825Z,10.18
2023-03-29T15:48:43.083Z,10.10
2023-03-29T15:51:12.737Z,10.01
2023-03-29T15:53:41.644Z,9.98
2023-03-29T15:56:15.723Z,9.96
2023-03-29T15:58:45.195Z,9.95
2023-03-29T16:01:33.242Z,9.95
2023-03-29T16:04:02.029Z,9.95
2023-03-29T16:06:31.644Z,9.95
2023-03-29T16:09:00.520Z,9.92
2023-03-29T16:11:29.399Z,9.93
2023-03-29T16:13:58.316Z,9.93
2023-03-29T16:16:26.957Z,9.92
2023-03-29T16:18:55.730Z,9.92
2023-03-29T16:21:24.529Z,9.96
2023-03-29T16:23:53.329Z,10.00
2023-03-29T16:26:22.492Z,10.02
2023-03-29T16:28:51.150Z,10.03
2023-03-29T16:31:20.368Z,10.05
2023-03-29T16:33:50.970Z,10.07
2023-03-29T16:36:19.755Z,10.09
2023-03-29T16:38:48.450Z,10.13
2023-03-29T16:41:17.581Z,10.18
2023-03-29T16:43:46.274Z,10.22
2023-03-29T16:46:15.079Z,10.26
2023-03-29T16:48:43.666Z,10.30
2023-03-29T16:51:12.406Z,10.30
2023-03-29T16:53:41.386Z,10.30
2023-03-29T16:56:10.576Z,10.31
2023-03-29T16:58:40.324Z,10.31
2023-03-29T17:01:10.200Z,10.28
2023-03-29T17:03:40.399Z,10.24
2023-03-29T17:06:11.520Z,10.20
2023-03-29T17:08:41.273Z,10.15
2023-03-29T17:11:11.284Z,10.09
2023-03-29T17:13:40.317Z,10.03
2023-03-29T17:16:09.258Z,9.97
2023-03-29T17:18:38.036Z,9.92
2023-03-29T17:21:08.286Z,9.86
2023-03-29T17:23:37.036Z,9.80
2023-03-29T17:26:07.073Z,9.73
2023-03-29T17:28:36.368Z,9.67
2023-03-29T17:31:07.070Z,9.60
2023-03-29T17:33:36.268Z,9.49
2023-03-29T17:36:07.511Z,9.36
2023-03-29T17:38:37.475Z,9.23
2023-03-29T17:41:07.723Z,9.12
2023-03-29T17:43:36.463Z,9.00
2023-03-29T17:46:06.101Z,8.89
2023-03-29T17:48:35.230Z,8.78
2023-03-29T17:51:04.370Z,8.70
2023-03-29T17:53:34.223Z,8.60
2023-03-29T17:56:03.350Z,8.53
2023-03-29T17:58:32.444Z,8.45
2023-03-29T18:01:07.492Z,8.40
2023-03-29T18:03:37.730Z,8.36
2023-03-29T18:06:08.191Z,8.32
2023-03-29T18:08:36.918Z,8.29
2023-03-29T18:11:08.277Z,8.25
2023-03-29T18:13:37.732Z,8.20
2023-03-29T18:16:08.670Z,8.17
2023-03-29T18:18:38.600Z,8.17
2023-03-29T18:21:09.686Z,8.15
2023-03-29T18:23:39.984Z,8.14
2023-03-29T18:26:08.790Z,8.12
2023-03-29T18:28:37.568Z,8.08
2023-03-29T18:31:06.501Z,8.04
2023-03-29T18:33:35.594Z,7.99
2023-03-29T18:36:09.111Z,7.95
2023-03-29T18:38:42.388Z,7.92
2023-03-29T18:41:12.888Z,7.87
2023-03-29T18:43:42.620Z,7.83
2023-03-29T18:46:12.279Z,7.80
2023-03-29T18:48:41.183Z,7.76
2023-03-29T18:51:12.451Z,7.74
2023-03-29T18:53:43.833Z,7.71
2023-03-29T18:56:13.376Z,7.67
2023-03-29T18:58:42.177Z,7.64
2023-03-29T19:01:13.142Z,7.62
2023-03-29T19:03:42.378Z,7.61
2023-03-29T19:06:11.584Z,7.57
2023-03-29T19:08:41.533Z,7.54
2023-03-29T19:11:14.367Z,7.47
2023-03-29T19:13:45.680Z,7.42
2023-03-29T19:16:14.352Z,7.36
2023-03-29T19:18:42.998Z,7.32
2023-03-29T19:21:11.845Z,7.28
2023-03-29T19:23:40.489Z,7.26
2023-03-29T19:26:10.130Z,7.24
2023-03-29T19:28:38.937Z,7.20
2023-03-29T19:31:09.213Z,7.14
2023-03-29T19:33:40.076Z,7.12
2023-03-29T19:36:09.922Z,7.07
2023-03-29T19:38:38.734Z,7.05
2023-03-29T19:41:08.476Z,7.04
2023-03-29T19:43:39.810Z,7.01
2023-03-29T19:46:15.036Z,6.99
2023-03-29T19:48:44.587Z,6.98
2023-03-29T19:51:13.597Z,6.99
2023-03-29T19:53:42.535Z,7.00
2023-03-29T19:56:12.642Z,7.00
2023-03-29T19:58:41.834Z,6.99
2023-03-29T20:01:10.452Z,7.00
2023-03-29T20:03:40.432Z,7.00
2023-03-29T20:06:12.013Z,6.99
2023-03-29T20:08:40.621Z,7.00
2023-03-29T20:11:10.863Z,7.00
2023-03-29T20:13:59.395Z,6.98
2023-03-29T20:16:29.195Z,6.99
2023-03-29T20:19:01.243Z,6.99
2023-03-29T20:21:30.667Z,7.01
2023-03-29T20:23:59.773Z,7.03
2023-03-29T20:26:28.381Z,7.03
2023-03-29T20:28:57.287Z,7.01
2023-03-29T20:31:26.745Z,7.01
2023-03-29T20:33:57.455Z,7.02
2023-03-29T20:36:29.857Z,7.01
2023-03-29T20:38:59.575Z,7.00
2023-03-29T20:41:28.339Z,7.00
2023-03-29T20:43:58.008Z,7.00
2023-03-29T20:46:32.729Z,7.00
2023-03-29T20:49:02.076Z,6.98
2023-03-29T20:51:31.253Z,6.97
2023-03-29T20:54:04.342Z,6.96
2023-03-29T20:56:36.677Z,6.94
2023-03-29T20:59:06.162Z,6.93
2023-03-29T21:01:39.816Z,6.93
2023-03-29T21:04:10.102Z,6.93
2023-03-29T21:06:38.941Z,6.92
2023-03-29T21:09:07.899Z,6.92
2023-03-29T21:11:36.820Z,6.91
2023-03-29T21:14:05.480Z,6.91
2023-03-29T21:16:34.277Z,6.93
2023-03-29T21:19:02.914Z,6.93
2023-03-29T21:21:33.041Z,6.95
2023-03-29T21:24:02.145Z,6.94
2023-03-29T21:26:30.907Z,6.94
2023-03-29T21:29:00.118Z,6.93
2023-03-29T21:31:28.788Z,6.93
2023-03-29T21:33:57.924Z,6.93
2023-03-29T21:36:26.880Z,6.93
2023-03-29T21:38:55.866Z,6.94
2023-03-29T21:41:24.616Z,6.95
2023-03-29T21:43:53.349Z,6.95
2023-03-29T21:46:23.955Z,6.95
2023-03-29T21:48:52.694Z,6.94
2023-03-29T21:51:21.337Z,6.92
2023-03-29T21:53:50.112Z,6.90
2023-03-29T21:56:18.770Z,6.89
2023-03-29T21:58:47.501Z,6.88
2023-03-29T22:01:16.421Z,6.85
2023-03-29T22:03:45.751Z,6.86
2023-03-29T22:06:15.004Z,6.85
2023-03-29T22:08:46.080Z,6.86
2023-03-29T22:11:16.041Z,6.86
2023-03-29T22:13:45.471Z,6.86
2023-03-29T22:16:16.076Z,6.85
2023-03-29T22:18:48.675Z,6.84
2023-03-29T22:21:19.053Z,6.84
2023-03-29T22:23:49.616Z,6.83
2023-03-29T22:26:21.518Z,6.84
2023-03-29T22:28:50.392Z,6.86
2023-03-29T22:31:20.674Z,6.85
2023-03-29T22:33:49.504Z,6.85
2023-03-29T22:36:21.196Z,6.84
2023-03-29T22:38:50.865Z,6.82
2023-03-29T22:41:22.062Z,6.82
2023-03-29T22:43:52.545Z,6.83
2023-03-29T22:46:22.069Z,6.82
2023-03-29T22:48:51.654Z,6.84
2023-03-29T22:51:20.808Z,6.82
2023-03-29T22:53:49.469Z,6.79
2023-03-29T22:56:18.210Z,6.78
2023-03-29T22:58:47.230Z,6.77
2023-03-29T23:01:16.251Z,6.75
2023-03-29T23:03:44.937Z,6.73
2023-03-29T23:06:13.632Z,6.70
2023-03-29T23:08:42.261Z,6.67
2023-03-29T23:11:11.662Z,6.65
2023-03-29T23:13:40.467Z,6.63
2023-03-29T23:16:09.866Z,6.61
2023-03-29T23:18:38.561Z,6.61
2023-03-29T23:21:08.310Z,6.61
2023-03-29T23:23:37.093Z,6.62
2023-03-29T23:26:08.449Z,6.61
2023-03-29T23:28:37.334Z,6.59
2023-03-29T23:31:09.082Z,6.57
2023-03-29T23:33:40.538Z,6.56
2023-03-29T23:36:11.146Z,6.53
2023-03-29T23:38:41.561Z,6.51
2023-03-29T23:41:12.137Z,6.47
2023-03-29T23:43:42.649Z,6.45
2023-03-29T23:46:14.626Z,6.44
2023-03-29T23:48:44.682Z,6.44
2023-03-29T23:51:13.524Z,6.41
2023-03-29T23:53:42.297Z,6.40
2023-03-29T23:56:11.198Z,6.39
2023-03-29T23:58:39.915Z,6.37
